createdAt,value
2022-08-20T00:01:06.050Z,101177.88
2022-08-20T00:03:37.073Z,101175.13
2022-08-20T00:06:05.781Z,101177.69
2022-08-20T00:11:00.344Z,101181.94
2022-08-20T00:13:31.925Z,101184.50
2022-08-20T00:15:59.529Z,101175.53
2022-08-20T00:18:25.971Z,101174.56
2022-08-20T00:20:55.597Z,101170.13
2022-08-20T00:23:22.922Z,101171.00
2022-08-20T00:25:50.040Z,101173.53
2022-08-20T00:28:16.697Z,101173.66
2022-08-20T00:30:45.155Z,101173.53
2022-08-20T00:33:16.731Z,101171.72
2022-08-20T00:35:48.350Z,101176.09
2022-08-20T00:38:15.078Z,101183.97
2022-08-20T00:40:45.576Z,101175.13
2022-08-20T00:43:46.003Z,101181.31
2022-08-20T00:46:22.042Z,101179.38
2022-08-20T00:48:58.592Z,101181.00
2022-08-20T00:51:57.583Z,101174.06
2022-08-20T00:54:28.566Z,101182.69
2022-08-20T00:57:05.499Z,101179.31
2022-08-20T00:59:34.680Z,101169.50
2022-08-20T01:02:01.954Z,101173.00
2022-08-20T01:04:31.391Z,101164.16
2022-08-20T01:06:57.795Z,101167.69
2022-08-20T01:09:50.286Z,101164.16
2022-08-20T01:12:11.705Z,101180.03
2022-08-20T01:14:45.785Z,101175.66
2022-08-20T01:17:19.612Z,101173.97
2022-08-20T01:19:55.281Z,101174.91
2022-08-20T01:22:58.361Z,101175.75
2022-08-20T01:25:50.270Z,101171.38
2022-08-20T01:28:24.443Z,101170.53
2022-08-20T01:30:51.681Z,101171.50
2022-08-20T01:33:20.345Z,101185.78
2022-08-20T01:35:47.348Z,101179.81
2022-08-20T01:38:14.110Z,101186.97
2022-08-20T01:40:40.570Z,101184.38
2022-08-20T01:43:08.880Z,101188.13
2022-08-20T01:48:06.735Z,101188.53
2022-08-20T01:50:35.913Z,101194.19
2022-08-20T01:53:18.650Z,101194.38
2022-08-20T01:55:45.165Z,101195.16
2022-08-20T01:58:11.681Z,101192.47
2022-08-20T02:00:38.210Z,101193.34
2022-08-20T02:03:05.078Z,101196.00
2022-08-20T02:05:33.313Z,101197.69
2022-08-20T02:08:00.413Z,101199.28
2022-08-20T02:10:27.695Z,101197.47
2022-08-20T02:12:59.608Z,101201.84
2022-08-20T02:15:34.727Z,101204.50
2022-08-20T02:18:10.489Z,101208.13
2022-08-20T02:20:37.763Z,101201.84
2022-08-20T02:23:06.036Z,101194.81
2022-08-20T02:25:35.506Z,101201.09
2022-08-20T02:28:05.866Z,101197.59
2022-08-20T02:30:40.986Z,101199.41
2022-08-20T02:33:10.275Z,101199.50
2022-08-20T02:35:39.061Z,101209.09
2022-08-20T02:38:05.627Z,101202.06
2022-08-20T02:40:32.422Z,101200.25
2022-08-20T02:43:00.552Z,101202.16
2022-08-20T02:45:28.375Z,101194.19
2022-08-20T02:47:56.905Z,101191.63
2022-08-20T02:50:25.768Z,101188.19
2022-08-20T02:52:53.868Z,101189.16
2022-08-20T02:55:27.317Z,101191.94
2022-08-20T02:58:00.063Z,101196.50
2022-08-20T03:00:37.700Z,101198.44
2022-08-20T03:03:06.918Z,101196.69
2022-08-20T03:05:35.131Z,101202.25
2022-08-20T03:08:03.920Z,101190.75
2022-08-20T03:10:34.029Z,101195.31
2022-08-20T03:13:02.515Z,101197.13
2022-08-20T03:15:30.868Z,101196.28
2022-08-20T03:17:57.648Z,101192.78
2022-08-20T03:20:25.268Z,101194.47
2022-08-20T03:22:52.141Z,101197.13
2022-08-20T03:25:18.671Z,101192.78
2022-08-20T03:27:45.829Z,101189.16
2022-08-20T03:30:14.378Z,101201.59
2022-08-20T03:32:41.523Z,101198.09
2022-08-20T03:35:11.034Z,101197.25
2022-08-20T03:37:38.454Z,101199.03
2022-08-20T03:40:15.581Z,101190.19
2022-08-20T03:42:43.204Z,101200.75
2022-08-20T03:45:13.040Z,101204.28
2022-08-20T03:47:42.478Z,101213.09
2022-08-20T03:50:10.342Z,101214.06
2022-08-20T03:52:49.554Z,101220.13
2022-08-20T03:55:16.063Z,101215.66
2022-08-20T03:57:49.363Z,101219.28
2022-08-20T04:00:21.934Z,101222.19
2022-08-20T04:02:48.915Z,101229.94
2022-08-20T04:05:15.512Z,101230.88
2022-08-20T04:07:42.802Z,101232.47
2022-08-20T04:10:10.977Z,101235.88
2022-08-20T04:12:40.730Z,101247.19
2022-08-20T04:15:17.500Z,101241.66
2022-08-20T04:17:48.422Z,101247.72
2022-08-20T04:20:19.082Z,101242.28
2022-08-20T04:22:50.817Z,101249.13
2022-08-20T04:25:29.521Z,101249.13
2022-08-20T04:28:00.427Z,101244.66
2022-08-20T04:30:27.961Z,101243.59
2022-08-20T04:32:55.283Z,101242.63
2022-08-20T04:35:24.487Z,101246.38
2022-08-20T04:37:58.825Z,101240.19
2022-08-20T04:40:43.980Z,101247.03
2022-08-20T04:43:10.506Z,101252.03
2022-08-20T04:45:39.943Z,101250.09
2022-08-20T04:48:10.560Z,101247.97
2022-08-20T04:50:43.651Z,101251.41
2022-08-20T04:55:42.846Z,101251.91
2022-08-20T04:58:16.695Z,101251.50
2022-08-20T05:00:45.912Z,101259.09
2022-08-20T05:03:12.464Z,101253.44
2022-08-20T05:05:39.376Z,101249.72
2022-08-20T05:08:06.199Z,101255.81
2022-08-20T05:10:47.014Z,101251.09
2022-08-20T05:13:13.551Z,101246.53
2022-08-20T05:15:39.981Z,101249.09
2022-08-20T05:18:08.637Z,101251.75
2022-08-20T05:20:40.958Z,101248.97
2022-08-20T05:23:10.192Z,101254.09
2022-08-20T05:25:38.123Z,101247.06
2022-08-20T05:28:12.588Z,101250.38
2022-08-20T05:30:44.506Z,101245.69
2022-08-20T05:33:16.782Z,101256.34
2022-08-20T05:35:43.395Z,101251.63
2022-08-20T05:38:12.969Z,101251.38
2022-08-20T05:40:40.880Z,101251.06
2022-08-20T05:43:08.394Z,101254.34
2022-08-20T05:45:39.551Z,101264.16
2022-08-20T05:48:16.097Z,101261.50
2022-08-20T05:50:44.818Z,101259.16
2022-08-20T05:53:11.900Z,101265.88
2022-08-20T05:55:39.729Z,101263.19
2022-08-20T05:58:14.012Z,101269.91
2022-08-20T06:00:40.478Z,101272.78
2022-08-20T06:03:25.437Z,101271.09
2022-08-20T06:05:51.964Z,101273.53
2022-08-20T06:08:18.587Z,101265.75
2022-08-20T06:10:45.256Z,101261.69
2022-08-20T06:13:14.037Z,101264.75
2022-08-20T06:15:41.211Z,101267.13
2022-08-20T06:18:27.499Z,101261.56
2022-08-20T06:20:56.763Z,101269.13
2022-08-20T06:23:25.189Z,101272.53
2022-08-20T06:25:52.465Z,101270.72
2022-08-20T06:28:18.962Z,101265.38
2022-08-20T06:30:45.450Z,101263.16
2022-08-20T06:33:12.139Z,101274.03
2022-08-20T06:35:38.661Z,101268.81
2022-08-20T06:38:05.822Z,101263.38
2022-08-20T06:40:34.024Z,101264.88
2022-08-20T06:43:01.146Z,101270.81
2022-08-20T06:45:31.789Z,101268.38
2022-08-20T06:48:01.670Z,101264.53
2022-08-20T06:50:43.184Z,101272.22
2022-08-20T06:53:18.291Z,101272.72
2022-08-20T06:55:54.782Z,101271.66
2022-08-20T06:58:36.686Z,101288.72
2022-08-20T07:01:10.394Z,101287.63
2022-08-20T07:03:42.143Z,101288.66
2022-08-20T07:06:22.090Z,101283.28
2022-08-20T07:08:48.556Z,101288.25
2022-08-20T07:11:15.195Z,101286.84
2022-08-20T07:13:41.932Z,101286.28
2022-08-20T07:16:08.941Z,101281.84
2022-08-20T07:18:36.328Z,101288.09
2022-08-20T07:21:03.341Z,101293.94
2022-08-20T07:23:31.455Z,101294.84
2022-08-20T07:25:58.399Z,101297.41
2022-08-20T07:28:28.737Z,101286.63
2022-08-20T07:31:15.945Z,101289.31
2022-08-20T07:33:44.288Z,101292.53
2022-08-20T07:36:12.213Z,101291.19
2022-08-20T07:38:38.644Z,101297.91
2022-08-20T07:41:09.879Z,101302.66
2022-08-20T07:43:36.494Z,101304.59
2022-08-20T07:46:08.737Z,101300.53
2022-08-20T07:48:39.703Z,101303.31
2022-08-20T07:51:07.694Z,101305.88
2022-08-20T07:53:36.675Z,101303.72
2022-08-20T07:56:10.038Z,101305.44
2022-08-20T07:58:41.547Z,101306.50
2022-08-20T08:01:08.211Z,101304.72
2022-08-20T08:03:39.907Z,101310.50
2022-08-20T08:06:29.310Z,101324.97
2022-08-20T08:09:01.756Z,101323.66
2022-08-20T08:11:28.373Z,101320.38
2022-08-20T08:13:54.742Z,101318.66
2022-08-20T08:16:21.876Z,101318.31
2022-08-20T08:18:52.098Z,101328.88
2022-08-20T08:21:18.968Z,101341.78
2022-08-20T08:23:45.702Z,101331.91
2022-08-20T08:26:15.898Z,101332.56
2022-08-20T08:28:45.851Z,101332.78
2022-08-20T08:31:13.079Z,101329.88
2022-08-20T08:33:40.752Z,101321.59
2022-08-20T08:36:13.107Z,101320.84
2022-08-20T08:38:42.856Z,101318.13
2022-08-20T08:41:26.477Z,101315.56
2022-08-20T08:43:59.631Z,101319.22
2022-08-20T08:46:27.699Z,101319.72
2022-08-20T08:48:57.653Z,101316.19
2022-08-20T08:51:39.577Z,101324.09
2022-08-20T08:54:08.457Z,101330.88
2022-08-20T08:56:35.777Z,101336.19
2022-08-20T08:59:07.642Z,101328.59
2022-08-20T09:01:55.614Z,101330.75
2022-08-20T09:04:32.565Z,101328.03
2022-08-20T09:07:01.210Z,101336.28
2022-08-20T09:09:38.556Z,101335.22
2022-08-20T09:12:08.692Z,101335.31
2022-08-20T09:14:35.845Z,101337.25
2022-08-20T09:17:03.071Z,101342.13
2022-08-20T09:19:29.912Z,101340.22
2022-08-20T09:21:56.548Z,101342.91
2022-08-20T09:24:23.060Z,101339.38
2022-08-20T09:26:49.510Z,101347.44
2022-08-20T09:29:16.251Z,101343.06
2022-08-20T09:31:43.527Z,101348.88
2022-08-20T09:34:11.588Z,101348.19
2022-08-20T09:36:38.051Z,101349.88
2022-08-20T09:39:04.651Z,101352.44
2022-08-20T09:41:34.310Z,101337.69
2022-08-20T09:44:01.579Z,101342.06
2022-08-20T09:46:28.096Z,101343.81
2022-08-20T09:48:54.974Z,101347.41
2022-08-20T09:51:22.534Z,101347.38
2022-08-20T09:53:49.356Z,101338.06
2022-08-20T09:56:16.899Z,101335.59
2022-08-20T09:58:48.867Z,101333.16
2022-08-20T10:01:18.424Z,101344.09
2022-08-20T10:03:48.630Z,101332.25
2022-08-20T10:06:17.847Z,101337.25
2022-08-20T10:08:44.432Z,101329.00
2022-08-20T10:11:11.724Z,101328.00
2022-08-20T10:13:38.132Z,101336.91
2022-08-20T10:16:04.991Z,101337.03
2022-08-20T10:18:31.530Z,101331.81
2022-08-20T10:20:58.007Z,101334.03
2022-08-20T10:23:24.369Z,101339.13
2022-08-20T10:25:50.868Z,101336.06
2022-08-20T10:28:17.302Z,101335.66
2022-08-20T10:30:45.071Z,101339.44
2022-08-20T10:33:11.492Z,101345.88
2022-08-20T10:35:38.390Z,101344.06
2022-08-20T10:38:04.779Z,101341.25
2022-08-20T10:40:31.227Z,101346.66
2022-08-20T10:42:57.785Z,101347.38
2022-08-20T10:45:25.699Z,101352.34
2022-08-20T10:47:52.287Z,101351.88
2022-08-20T10:50:19.915Z,101352.06
2022-08-20T10:52:47.062Z,101349.34
2022-08-20T10:55:13.632Z,101353.59
2022-08-20T10:57:41.593Z,101356.69
2022-08-20T11:00:12.957Z,101357.47
2022-08-20T11:02:39.473Z,101352.78
2022-08-20T11:05:07.796Z,101363.28
2022-08-20T11:07:55.129Z,101363.66
2022-08-20T11:10:27.035Z,101364.88
2022-08-20T11:12:53.599Z,101367.50
2022-08-20T11:15:20.089Z,101370.63
2022-08-20T11:17:46.925Z,101367.41
2022-08-20T11:20:16.307Z,101375.81
2022-08-20T11:22:42.815Z,101372.78
2022-08-20T11:25:09.617Z,101382.28
2022-08-20T11:27:39.735Z,101367.50
2022-08-20T11:30:09.968Z,101377.59
2022-08-20T11:32:36.799Z,101377.31
2022-08-20T11:35:18.795Z,101366.31
2022-08-20T11:37:54.020Z,101369.13
2022-08-20T11:40:21.338Z,101363.97
2022-08-20T11:43:12.591Z,101370.75
2022-08-20T11:45:37.368Z,101374.09
2022-08-20T11:48:05.089Z,101372.31
2022-08-20T11:50:32.075Z,101379.41
2022-08-20T11:52:58.735Z,101385.31
2022-08-20T11:55:30.056Z,101375.72
2022-08-20T11:58:00.179Z,101368.75
2022-08-20T12:00:33.206Z,101370.72
2022-08-20T12:03:05.272Z,101364.50
2022-08-20T12:05:32.688Z,101361.44
2022-08-20T12:08:02.440Z,101364.75
2022-08-20T12:10:30.184Z,101365.03
2022-08-20T12:12:57.486Z,101365.94
2022-08-20T12:15:26.680Z,101369.91
2022-08-20T12:17:53.520Z,101354.84
2022-08-20T12:20:20.192Z,101375.41
2022-08-20T12:22:46.787Z,101375.31
2022-08-20T12:25:13.646Z,101366.78
2022-08-20T12:27:41.760Z,101373.41
2022-08-20T12:30:12.045Z,101364.22
2022-08-20T12:32:38.612Z,101363.00
2022-08-20T12:35:06.736Z,101368.25
2022-08-20T12:37:33.588Z,101362.59
2022-08-20T12:40:01.849Z,101357.88
2022-08-20T12:42:31.751Z,101353.34
2022-08-20T12:44:59.418Z,101361.09
2022-08-20T12:47:32.155Z,101360.06
2022-08-20T12:50:10.028Z,101367.56
2022-08-20T12:52:37.112Z,101369.59
2022-08-20T12:55:04.659Z,101374.66
2022-08-20T12:57:39.638Z,101372.81
2022-08-20T13:00:16.915Z,101377.22
2022-08-20T13:02:45.036Z,101375.94
2022-08-20T13:05:13.252Z,101384.69
2022-08-20T13:07:41.124Z,101368.91
2022-08-20T13:10:11.813Z,101366.84
2022-08-20T13:12:38.254Z,101363.13
2022-08-20T13:15:05.179Z,101373.44
2022-08-20T13:17:38.005Z,101377.16
2022-08-20T13:20:07.845Z,101376.41
2022-08-20T13:22:35.443Z,101376.78
2022-08-20T13:25:02.008Z,101371.38
2022-08-20T13:27:28.631Z,101376.69
2022-08-20T13:29:58.741Z,101380.34
2022-08-20T13:32:26.180Z,101374.38
2022-08-20T13:34:52.577Z,101374.28
2022-08-20T13:37:25.369Z,101374.50
2022-08-20T13:39:56.363Z,101369.44
2022-08-20T13:42:23.397Z,101381.97
2022-08-20T13:44:49.947Z,101370.06
2022-08-20T13:47:25.654Z,101369.81
2022-08-20T13:49:58.290Z,101370.78
2022-08-20T13:52:25.460Z,101371.22
2022-08-20T13:54:52.410Z,101372.59
2022-08-20T13:57:20.560Z,101376.97
2022-08-20T13:59:49.528Z,101378.09
2022-08-20T14:02:17.397Z,101373.97
2022-08-20T14:04:43.961Z,101370.13
2022-08-20T14:07:19.968Z,101369.31
2022-08-20T14:09:53.868Z,101361.63
2022-08-20T14:12:23.154Z,101371.94
2022-08-20T14:14:51.196Z,101375.28
2022-08-20T14:17:19.651Z,101374.66
2022-08-20T14:19:48.511Z,101372.13
2022-08-20T14:22:18.035Z,101378.25
2022-08-20T14:24:47.272Z,101372.66
2022-08-20T14:27:15.726Z,101390.91
2022-08-20T14:29:44.522Z,101373.47
2022-08-20T14:32:11.498Z,101388.31
2022-08-20T14:34:38.909Z,101384.03
2022-08-20T14:37:15.907Z,101398.13
2022-08-20T14:39:44.886Z,101399.00
2022-08-20T14:42:11.773Z,101402.56
2022-08-20T14:44:38.389Z,101401.06
2022-08-20T14:47:23.827Z,101402.81
2022-08-20T14:49:52.642Z,101402.72
2022-08-20T14:52:20.732Z,101395.22
2022-08-20T14:54:48.078Z,101397.53
2022-08-20T14:57:16.874Z,101396.09
2022-08-20T14:59:44.167Z,101399.88
2022-08-20T15:02:12.825Z,101403.59
2022-08-20T15:04:40.867Z,101389.34
2022-08-20T15:07:14.702Z,101404.81
2022-08-20T15:09:43.851Z,101401.16
2022-08-20T15:12:10.334Z,101401.16
2022-08-20T15:14:39.281Z,101401.31
2022-08-20T15:17:06.166Z,101399.31
2022-08-20T15:19:32.910Z,101400.59
2022-08-20T15:21:59.345Z,101401.06
2022-08-20T15:24:25.863Z,101402.75
2022-08-20T15:26:52.328Z,101413.94
2022-08-20T15:29:23.136Z,101412.25
2022-08-20T15:31:50.293Z,101406.75
2022-08-20T15:34:18.059Z,101407.13
2022-08-20T15:36:45.347Z,101415.28
2022-08-20T15:39:11.835Z,101418.78
2022-08-20T15:41:38.305Z,101424.78
2022-08-20T15:44:04.946Z,101419.38
2022-08-20T15:46:36.271Z,101416.22
2022-08-20T15:49:11.416Z,101418.84
2022-08-20T15:51:47.297Z,101418.22
2022-08-20T15:54:19.125Z,101419.59
2022-08-20T15:57:07.572Z,101424.63
2022-08-20T16:00:11.479Z,101426.72
2022-08-20T16:03:11.706Z,101430.81
2022-08-20T16:05:59.479Z,101430.06
2022-08-20T16:08:47.782Z,101426.00
2022-08-20T16:11:29.390Z,101429.56
2022-08-20T16:14:08.803Z,101432.88
2022-08-20T16:16:42.546Z,101435.47
2022-08-20T16:19:14.934Z,101440.81
2022-08-20T16:21:44.575Z,101439.13
2022-08-20T16:24:13.869Z,101439.13
2022-08-20T16:26:43.639Z,101439.38
2022-08-20T16:29:12.033Z,101434.50
2022-08-20T16:32:00.460Z,101449.63
2022-08-20T16:34:40.399Z,101454.47
2022-08-20T16:37:25.281Z,101457.13
2022-08-20T16:40:00.030Z,101451.69
2022-08-20T16:42:33.270Z,101452.78
2022-08-20T16:45:00.336Z,101459.47
2022-08-20T16:47:30.760Z,101464.38
2022-08-20T16:50:11.939Z,101463.63
2022-08-20T16:52:43.489Z,101465.44
2022-08-20T16:55:10.803Z,101456.22
2022-08-20T16:57:37.447Z,101461.69
2022-08-20T17:00:22.156Z,101459.75
2022-08-20T17:02:57.926Z,101467.19
2022-08-20T17:05:29.190Z,101471.69
2022-08-20T17:08:02.181Z,101467.19
2022-08-20T17:10:33.085Z,101460.72
2022-08-20T17:13:05.072Z,101462.53
2022-08-20T17:15:35.491Z,101464.97
2022-08-20T17:18:24.463Z,101470.59
2022-08-20T17:20:51.687Z,101472.16
2022-08-20T17:23:20.632Z,101471.66
2022-08-20T17:26:00.227Z,101468.34
2022-08-20T17:28:29.831Z,101474.16
2022-08-20T17:30:58.554Z,101472.72
2022-08-20T17:33:30.263Z,101464.81
2022-08-20T17:36:21.302Z,101471.94
2022-08-20T17:38:51.703Z,101473.03
2022-08-20T17:41:23.163Z,101478.88
2022-08-20T17:44:07.901Z,101474.38
2022-08-20T17:46:41.526Z,101480.22
2022-08-20T17:49:12.641Z,101477.56
2022-08-20T17:51:52.950Z,101481.41
2022-08-20T17:54:25.741Z,101473.38
2022-08-20T17:56:57.879Z,101478.25
2022-08-20T17:59:59.822Z,101477.75
2022-08-20T18:02:16.760Z,101476.28
2022-08-20T18:04:44.644Z,101473.94
2022-08-20T18:07:11.018Z,101476.13
2022-08-20T18:09:55.193Z,101474.78
2022-08-20T18:12:49.725Z,101470.41
2022-08-20T18:15:29.674Z,101475.00
2022-08-20T18:18:17.759Z,101483.34
2022-08-20T18:21:10.820Z,101486.88
2022-08-20T18:23:42.926Z,101476.38
2022-08-20T18:26:31.820Z,101498.00
2022-08-20T18:29:03.776Z,101498.13
2022-08-20T18:31:33.997Z,101502.75
2022-08-20T18:34:14.732Z,101510.38
2022-08-20T18:36:41.513Z,101508.38
2022-08-20T18:39:23.203Z,101509.06
2022-08-20T18:42:01.985Z,101512.28
2022-08-20T18:44:37.553Z,101516.25
2022-08-20T18:47:06.032Z,101515.41
2022-08-20T18:49:37.372Z,101515.50
2022-08-20T18:52:11.209Z,101517.44
2022-08-20T18:54:40.880Z,101522.88
2022-08-20T18:57:19.060Z,101523.13
2022-08-20T18:59:53.687Z,101518.00
2022-08-20T19:02:25.661Z,101520.25
2022-08-20T19:05:02.320Z,101517.97
2022-08-20T19:07:47.953Z,101513.06
2022-08-20T19:11:05.800Z,101508.28
2022-08-20T19:13:48.296Z,101517.59
2022-08-20T19:16:40.328Z,101526.88
2022-08-20T19:19:18.764Z,101515.47
2022-08-20T19:21:45.395Z,101525.47
2022-08-20T19:24:17.964Z,101529.56
2022-08-20T19:26:49.847Z,101531.59
2022-08-20T19:29:22.813Z,101533.50
2022-08-20T19:31:49.249Z,101529.25
2022-08-20T19:34:25.551Z,101536.59
2022-08-20T19:36:58.698Z,101534.88
2022-08-20T19:39:30.300Z,101540.44
2022-08-20T19:42:03.883Z,101538.94
2022-08-20T19:44:41.439Z,101547.28
2022-08-20T19:47:20.391Z,101536.78
2022-08-20T19:50:04.811Z,101545.16
2022-08-20T19:52:51.661Z,101541.88
2022-08-20T19:55:38.869Z,101540.47
2022-08-20T19:58:11.044Z,101551.13
2022-08-20T20:00:48.533Z,101546.13
2022-08-20T20:03:22.880Z,101548.97
2022-08-20T20:05:58.427Z,101547.59
2022-08-20T20:08:30.368Z,101540.00
2022-08-20T20:10:59.831Z,101536.78
2022-08-20T20:13:27.747Z,101541.47
2022-08-20T20:16:02.707Z,101540.84
2022-08-20T20:18:34.024Z,101541.03
2022-08-20T20:21:20.471Z,101537.81
2022-08-20T20:23:54.000Z,101542.38
2022-08-20T20:26:21.026Z,101540.13
2022-08-20T20:28:51.097Z,101542.22
2022-08-20T20:31:24.144Z,101537.13
2022-08-20T20:33:56.488Z,101535.59
2022-08-20T20:36:40.287Z,101539.47
2022-08-20T20:39:14.296Z,101543.09
2022-08-20T20:41:53.015Z,101543.50
2022-08-20T20:44:28.560Z,101539.09
2022-08-20T20:47:00.224Z,101544.66
2022-08-20T20:49:28.305Z,101545.81
2022-08-20T20:52:01.348Z,101543.53
2022-08-20T20:54:29.687Z,101544.66
2022-08-20T20:57:05.718Z,101536.97
2022-08-20T20:59:35.249Z,101534.50
2022-08-20T21:02:02.875Z,101536.41
2022-08-20T21:04:29.433Z,101533.19
2022-08-20T21:06:58.807Z,101531.66
2022-08-20T21:11:52.625Z,101525.84
2022-08-20T21:14:19.139Z,101534.81
2022-08-20T21:16:45.795Z,101535.13
2022-08-20T21:19:13.419Z,101537.94
2022-08-20T21:21:40.521Z,101539.84
2022-08-20T21:24:07.843Z,101528.56
2022-08-20T21:26:34.814Z,101534.91
2022-08-20T21:29:01.366Z,101536.06
2022-08-20T21:31:33.721Z,101529.19
2022-08-20T21:34:00.420Z,101538.19
2022-08-20T21:36:27.318Z,101533.09
2022-08-20T21:38:53.795Z,101533.25
2022-08-20T21:41:29.590Z,101530.78
2022-08-20T21:43:58.780Z,101528.13
2022-08-20T21:46:25.972Z,101535.41
2022-08-20T21:48:52.404Z,101524.13
2022-08-20T21:51:19.028Z,101524.31
2022-08-20T21:53:45.476Z,101528.00
2022-08-20T21:56:12.201Z,101529.16
2022-08-20T21:58:39.546Z,101528.56
2022-08-20T22:01:11.259Z,101527.06
2022-08-20T22:03:40.958Z,101532.53
2022-08-20T22:06:10.152Z,101534.53
2022-08-20T22:08:36.570Z,101531.19
2022-08-20T22:11:04.117Z,101538.50
2022-08-20T22:13:33.629Z,101538.69
2022-08-20T22:16:06.454Z,101537.06
2022-08-20T22:18:33.839Z,101541.63
2022-08-20T22:21:00.500Z,101542.66
2022-08-20T22:23:27.318Z,101540.16
2022-08-20T22:25:54.064Z,101538.66
2022-08-20T22:28:21.429Z,101541.41
2022-08-20T22:30:47.835Z,101536.25
2022-08-20T22:33:19.112Z,101531.97
2022-08-20T22:35:49.750Z,101533.88
2022-08-20T22:38:17.104Z,101528.66
2022-08-20T22:40:44.223Z,101529.59
2022-08-20T22:43:11.198Z,101528.03
2022-08-20T22:45:39.102Z,101537.13
2022-08-20T22:48:06.774Z,101534.72
2022-08-20T22:50:33.186Z,101532.25
2022-08-20T22:53:01.349Z,101536.88
2022-08-20T22:55:27.858Z,101536.13
2022-08-20T22:57:54.923Z,101527.38
2022-08-20T23:00:24.150Z,101521.28
2022-08-20T23:02:55.040Z,101524.13
2022-08-20T23:05:23.655Z,101524.31
2022-08-20T23:07:53.974Z,101516.44
2022-08-20T23:10:21.302Z,101522.75
2022-08-20T23:12:48.073Z,101506.13
2022-08-20T23:15:14.614Z,101504.53
2022-08-20T23:17:41.442Z,101505.44
2022-08-20T23:20:11.252Z,101506.47
2022-08-20T23:22:37.811Z,101506.56
2022-08-20T23:25:06.226Z,101502.31
2022-08-20T23:27:39.473Z,101498.84
2022-08-20T23:30:06.805Z,101497.16
2022-08-20T23:32:33.231Z,101494.66
2022-08-20T23:34:59.708Z,101500.22
2022-08-20T23:37:26.246Z,101499.47
2022-08-20T23:39:52.732Z,101499.72
2022-08-20T23:42:19.195Z,101492.78
2022-08-20T23:44:45.641Z,101493.81
2022-08-20T23:47:18.031Z,101500.06
2022-08-20T23:49:45.279Z,101490.41
2022-08-20T23:52:11.803Z,101484.28
2022-08-20T23:54:38.373Z,101493.28
2022-08-20T23:57:08.166Z,101490.81
2022-08-20T23:59:35.188Z,101486.50
